Calgary / Christiansen Field

CRS3 · Alberta, Canadá

METAR pasados CRS3 · Calgary / Christiansen Field

A continuación puedes ver los METAR de los últimos días. Selecciona un año para ver los METAR más antiguos, desde el año 2007 en adelante.

17 de abril de 2024

Hora Código Tiempo Temp. Visibilidad Cielo nuboso Viento METAR/SPECI
14:56
M
0 °C 9 mi 2.900 ft 340° 340° 22 - 33 kt METAR KCTB 172056Z AUTO 34022G33KT 9SM -SN FEW020 BKN029 OVC046 00/M04 A3028 RMK AO2 PK WND 35036/2032 SNB18 SLP290 P0000 60000 T00001044 51014
14:41
V
1 °C 10 mi 3.300 ft 340° 340° 23 - 36 kt METAR KCTB 172041Z AUTO 34023G36KT 10SM -SN FEW018 BKN033 OVC065 01/M04 A3028 RMK AO2 PK WND 35036/2032 SNB18 P0000 T00061044
13:56
M
0 °C 10 mi 1.900 ft 330° 330° 26 - 34 kt METAR KCTB 171956Z AUTO 33026G34KT 10SM BKN019 BKN026 OVC037 00/M04 A3026 RMK AO2 PK WND 34034/1906 SNE46 SLP284 P0000 T00001044
13:11
M
-1 °C 5 mi 2.000 ft 330° 330° 25 - 34 kt METAR KCTB 171911Z AUTO 33025G34KT 5SM -SN SCT014 BKN020 OVC031 M01/M04 A3026 RMK AO2 PK WND 34034/1906 P0000 T10111044
12:56
I
-2 °C 2 mi 1.600 ft 340° 340° 21 - 31 kt METAR KCTB 171856Z AUTO 34021G31KT 2SM -SN BR BKN016 OVC022 M02/M04 A3026 RMK AO2 PK WND 34035/1818 SLP281 P0000 T10171039
12:06
M
-1 °C 5 mi 1.600 ft 340° 340° 26 - 34 kt METAR KCTB 171806Z AUTO 34026G34KT 5SM -SN BKN016 BKN023 OVC030 M01/M04 A3024 RMK AO2 PK WND 33034/1757 P0000 T10111039
11:56
I
-2 °C 2 mi 2.000 ft 330° 330° 25 - 36 kt METAR KCTB 171756Z AUTO 33025G36KT 2SM -SN SCT014 BKN020 OVC028 M02/M04 A3024 RMK AO2 PK WND 33038/1735 SLP276 P0000 60000 T10171044 11011 21039 51019
11:40
M
-2 °C 5 mi 2.200 ft 340° 340° 24 - 38 kt METAR KCTB 171740Z AUTO 34024G38KT 5SM -SN SCT016 BKN022 OVC039 M02/M05 A3023 RMK AO2 PK WND 33038/1735 P0000 T10171050
11:31
M
-2 °C 3 mi 3.000 ft 330° 330° 22 - 33 kt METAR KCTB 171731Z AUTO 33022G33KT 3SM -SN FEW014 BKN030 OVC039 M02/M04 A3023 RMK AO2 PK WND 35036/1717 P0000 T10171044
11:22
I
-2 °C 1¾ mi 3.400 ft 340° 340° 22 - 36 kt METAR KCTB 171722Z AUTO 34022G36KT 1 3/4SM -SN SCT016 SCT024 OVC034 M02/M05 A3023 RMK AO2 PK WND 35036/1717 P0000 T10221050
11:06
I
-2 °C 2 mi 2.100 ft 340° 340° 23 - 32 kt METAR KCTB 171706Z AUTO 34023G32KT 2SM -SN SCT014 BKN021 OVC042 M02/M05 A3023 RMK AO2 PK WND 34032/1700 P0000 T10221050
10:56
I
-3 °C 1¼ mi 1.900 ft 330° 330° 26 - 33 kt METAR KCTB 171656Z AUTO 33026G33KT 1 1/4SM -SN BR SCT014 BKN019 OVC037 M03/M05 A3022 RMK AO2 PK WND 33040/1615 SLP271 P0000 T10281050
10:39
I
-3 °C 1¾ mi 3.100 ft 340° 340° 26 - 33 kt METAR KCTB 171639Z AUTO 34026G33KT 1 3/4SM -SN SCT016 BKN031 OVC038 M03/M06 A3022 RMK AO2 PK WND 33040/1615 P0000 T10281056
10:29
M
-3 °C 4 mi 3.500 ft 340° 340° 24 - 37 kt METAR KCTB 171629Z AUTO 34024G37KT 4SM -SN SCT013 OVC035 M03/M06 A3021 RMK AO2 PK WND 33040/1615 P0000 T10281056
10:22
I
-3 °C 2½ mi 3.000 ft 350° 350° 27 - 40 kt METAR KCTB 171622Z AUTO 35027G40KT 2 1/2SM -SN FEW013 BKN030 OVC038 M03/M06 A3021 RMK AO2 PK WND 33040/1615 P0000 T10281056
10:05
I
-3 °C 1¾ mi 2.700 ft 330° 330° 20 - 33 kt METAR KCTB 171605Z AUTO 33020G33KT 1 3/4SM -SN SCT012 BKN027 OVC034 M03/M06 A3020 RMK AO2 PK WND 33033/1558 P0000 T10281056
09:56
M
-3 °C 5 mi 2.700 ft 340° 340° 26 - 34 kt METAR KCTB 171556Z AUTO 34026G34KT 5SM -SN FEW013 SCT019 OVC027 M03/M06 A3020 RMK AO2 PK WND 31035/1523 SLP264 P0000 T10281056
09:42
I
-3 °C 1½ mi 2.500 ft 330° 330° 21 - 32 kt METAR KCTB 171542Z AUTO 33021G32KT 1 1/2SM -SN BR SCT014 BKN025 OVC029 M03/M05 A3019 RMK AO2 PK WND 31035/1523 P0000 T10281050
09:26
I
-3 °C 2 mi 2.400 ft 320° 320° 24 - 35 kt METAR KCTB 171526Z AUTO 32024G35KT 2SM -SN FEW012 BKN024 OVC032 M03/M06 A3019 RMK AO2 PK WND 31035/1523 P0000 T10281056
08:56
I
-3 °C 1¼ mi 2.000 ft 320° 320° 21 - 34 kt METAR KCTB 171456Z AUTO 32021G34KT 1 1/4SM -SN FEW010 FEW014 OVC020 M03/M06 A3017 RMK AO2 PK WND 32035/1442 SLP254 P0000 60000 T10281056 51005
08:40
I
-3 °C 1 mi 2.200 ft 320° 320° 18 - 28 kt METAR KCTB 171440Z AUTO 32018G28KT 1SM -SN BR FEW010 SCT014 OVC022 M03/M05 A3018 RMK AO2 PK WND 33031/1427 P0000 T10331050
08:03
I
-3 °C 2 mi 2.600 ft 320° 320° 18 - 27 kt METAR KCTB 171403Z AUTO 32018G27KT 2SM -SN BR FEW015 BKN026 OVC034 M03/M06 A3018 RMK AO2 PK WND 32027/1400 P0000 T10331056
07:56
M
-3 °C 3 mi 2.600 ft 320° 320° 18 - 28 kt METAR KCTB 171356Z AUTO 32018G28KT 3SM -SN BR FEW013 SCT021 OVC026 M03/M06 A3017 RMK AO2 PK WND 32029/1342 SLP253 P0000 T10331056
07:35
M
-3 °C 5 mi 2.000 ft 310° 310° 21 kt METAR KCTB 171335Z AUTO 31021KT 5SM -SN BKN020 BKN030 OVC095 M03/M06 A3017 RMK AO2 PK WND 31028/1320 P0000 T10331061
06:56
V
-4 °C 5 mi 3.800 ft 310° 310° 19 - 26 kt METAR KCTB 171256Z AUTO 31019G26KT 5SM -SN BR FEW030 OVC038 M04/M06 A3017 RMK AO2 PK WND 31026/1250 SNB20 SLP248 P0000 T10391061
05:56
V
-4 °C 10 mi 3.200 ft 320° 320° 19 - 26 kt METAR KCTB 171156Z AUTO 32019G26KT 10SM SCT023 BKN032 OVC060 M04/M07 A3016 RMK AO2 PK WND 32028/1134 SNE39 SLP243 P0000 60000 T10391067 11006 21039 51008
05:05
M
-3 °C 8 mi 1.800 ft 320° 320° 13 - 21 kt METAR KCTB 171105Z AUTO 32013G21KT 8SM -SN BKN018 BKN025 OVC050 M03/M06 A3016 RMK AO2 P0000 T10331061
04:56
M
-3 °C 9 mi 3.000 ft 320° 320° 16 - 23 kt METAR KCTB 171056Z AUTO 32016G23KT 9SM -SN SCT020 BKN030 OVC050 M03/M06 A3016 RMK AO2 PK WND 34026/1026 SNB47 SLP241 P0000 T10331061
03:56
V
-4 °C 10 mi 4.800 ft 330° 330° 17 kt METAR KCTB 170956Z AUTO 33017KT 10SM FEW041 BKN048 BKN070 M04/M07 A3015 RMK AO2 PK WND 34033/0918 SLP240 T10391067
02:56
V
-3 °C 10 mi 3.400 ft 340° 340° 25 - 35 kt METAR KCTB 170856Z AUTO 34025G35KT 10SM FEW028 BKN034 OVC070 M03/M07 A3013 RMK AO2 PK WND 33035/0856 SNE04 SLP230 P0000 60000 T10281067 51010
02:40
V
-2 °C 10 mi 3.600 ft 340° 340° 23 - 34 kt METAR KCTB 170840Z AUTO 34023G34KT 10SM FEW017 BKN036 OVC070 M02/M06 A3013 RMK AO2 PK WND 35034/0835 SNE04 P0000 T10221056
01:56
M
-2 °C 10 mi 2.400 ft 350° 350° 20 - 26 kt METAR KCTB 170756Z AUTO 35020G26KT 10SM -SN SCT019 BKN024 OVC035 M02/M04 A3012 RMK AO2 PK WND 35033/0715 SNB11 SLP225 P0000 T10221044
00:56
M
-1 °C 10 mi 2.000 ft 350° 350° 22 - 30 kt METAR KCTB 170656Z AUTO 35022G30KT 10SM SCT014 BKN020 OVC035 M01/M04 A3011 RMK AO2 PK WND 35030/0654 SLP212 T10061039 401111033
00:38
M
-1 °C 10 mi 2.700 ft 340° 340° 16 - 24 kt METAR KCTB 170638Z AUTO 34016G24KT 10SM SCT015 BKN027 BKN034 M01/M03 A3011 RMK AO2 T10061033

16 de abril de 2024

Hora Código Tiempo Temp. Visibilidad Cielo nuboso Viento METAR/SPECI
23:56
V
-2 °C 10 mi 3.400 ft 330° 330° 13 kt METAR KCTB 170556Z AUTO 33013KT 10SM FEW013 SCT029 BKN034 M02/M04 A3010 RMK AO2 PK WND 35026/0503 SLP211 T10171039 10039 21033 51011
23:23
M
-1 °C 10 mi 2.000 ft 330° 330° 16 kt METAR KCTB 170523Z AUTO 33016KT 10SM FEW012 BKN020 OVC032 M01/M04 A3010 RMK AO2 PK WND 35026/0503 T10111039
23:15
V
-1 °C 10 mi 3.100 ft 340° 340° 17 kt METAR KCTB 170515Z AUTO 34017KT 10SM FEW015 BKN031 OVC038 M01/M03 A3009 RMK AO2 PK WND 35026/0503 T10111033
22:56
M
-1 °C 10 mi 2.300 ft 340° 340° 9 kt METAR KCTB 170456Z AUTO 34009KT 10SM SCT019 BKN023 OVC060 M01/M04 A3009 RMK AO2 SLP203 T10061039
21:56
V
-2 °C 10 mi - 330° 330° 10 kt METAR KCTB 170356Z AUTO 33010KT 10SM FEW023 M02/M05 A3008 RMK AO2 SLP203 T10171050
20:56
V
-1 °C 10 mi - 340° 340° 8 kt METAR KCTB 170256Z AUTO 34008KT 10SM CLR M01/M06 A3006 RMK AO2 SLP206 T10111056 53019
19:56
V
1 °C 10 mi 6.000 ft 360° 360° 13 kt METAR KCTB 170156Z AUTO 36013KT 10SM FEW031 FEW038 BKN060 01/M05 A3004 RMK AO2 SLP197 T00111050
18:56
V
3 °C 10 mi 4.000 ft 340° 340° 16 kt METAR KCTB 170056Z AUTO 34016KT 10SM FEW034 BKN040 OVC050 03/M05 A3002 RMK AO2 SLP191 T00281050
17:38
M
3 °C 6 mi 2.700 ft 340° 340° 18 kt METAR KCTB 162338Z AUTO 34018KT 6SM -SN BKN027 OVC040 03/M02 A2999 RMK AO2 PK WND 35028/2319 RAB16E19SNB19 P0000 T00331022
16:56
V
4 °C 10 mi - 340° 340° 13 kt METAR KCTB 162256Z AUTO 34013KT 10SM FEW019 SCT070 04/M03 A2998 RMK AO2 PK WND 36028/2242 SLP170 T00441033
15:56
V
5 °C 10 mi 8.000 ft 350° 350° 19 - 25 kt METAR KCTB 162156Z AUTO 35019G25KT 10SM FEW040 SCT060 BKN080 05/M04 A2996 RMK AO2 PK WND 34034/2113 SLP163 T00501039
14:56
V
4 °C 9 mi 7.000 ft 340° 340° 22 - 30 kt METAR KCTB 162056Z AUTO 34022G30KT 9SM FEW025 SCT047 OVC070 04/M01 A2995 RMK AO2 PK WND 34034/2038 WSHFT 1943 RAB10E43SNB43E53 SLP159 P0000 60000 T00441011 53015
14:03
V
5 °C 10 mi 6.500 ft 340° 340° 23 - 33 kt METAR KCTB 162003Z AUTO 34023G33KT 10SM FEW043 BKN065 OVC090 05/M02 A2993 RMK AO2 PK WND 33031/1957 WSHFT 1943 T00501017
13:56
V
6 °C 10 mi 7.000 ft 330° 330° 27 - 33 kt METAR KCTB 161956Z AUTO 33027G33KT 10SM SCT041 BKN070 OVC090 06/M03 A2993 RMK AO2 PK WND 29034/1909 WSHFT 1941 SLP145 T00611028
12:56
V
9 °C 10 mi 8.500 ft 290° 290° 24 - 32 kt METAR KCTB 161856Z AUTO 29024G32KT 10SM BKN085 09/M09 A2990 RMK AO2 PK WND 28034/1810 SLP125 T00891094
11:56
V
8 °C 10 mi - 270° 270° 24 - 32 kt METAR KCTB 161756Z AUTO 27024G32KT 10SM CLR 08/M10 A2991 RMK AO2 PK WND 27033/1725 SLP128 T00831100 10100 20000 55004
10:56
V
10 °C 10 mi 7.000 ft 270° 270° 19 - 31 kt METAR KCTB 161656Z AUTO 27019G31KT 10SM BKN070 10/M09 A2990 RMK AO2 PK WND 25031/1649 SLP122 T01001089
09:56
V
9 °C 10 mi - 250° 250° 21 - 29 kt METAR KCTB 161556Z AUTO 25021G29KT 10SM SCT065 09/M06 A2990 RMK AO2 PK WND 25029/1555 SLP124 T00891056
08:56
V
3 °C 10 mi - 320° 320° 5 kt METAR KCTB 161456Z AUTO 32005KT 10SM FEW070 03/01 A2992 RMK AO2 SLP138 T00330006 51005
07:56
V
1 °C 10 mi - 360° 360° 8 kt METAR KCTB 161356Z AUTO 36008KT 10SM FEW075 01/M01 A2992 RMK AO2 SLP138 T00111011
06:56
V
1 °C 10 mi - 310° 310° 3 kt METAR KCTB 161256Z AUTO 31003KT 10SM FEW080 01/ A2991 RMK AO2 SLP132 T0006 $
05:56
V
1 °C 10 mi - 350° 350° 7 kt METAR KCTB 161156Z AUTO 35007KT 10SM CLR 01/ A2990 RMK AO2 SLP127 T0006 10083 21006 52003 $
04:56
V
2 °C 10 mi - 250° 250° 5 kt METAR KCTB 161056Z AUTO 25005KT 10SM CLR 02/ A2989 RMK AO2 SLP122 T0017 $
03:56
V
2 °C 10 mi - 290° 290° 10 kt METAR KCTB 160956Z AUTO 29010KT 10SM CLR 02/ A2989 RMK AO2 SLP122 T0022 $
02:56
V
3 °C 10 mi - 340° 340° 12 kt METAR KCTB 160856Z AUTO 34012KT 10SM CLR 03/ A2989 RMK AO2 SLP116 T0033 53013 $
01:56
V
5 °C 10 mi - 320° 320° 13 kt METAR KCTB 160756Z AUTO 32013KT 10SM CLR 05/ A2988 RMK AO2 SLP110 T0050 $
00:56
V
8 °C 10 mi - 270° 270° 16 - 24 kt METAR KCTB 160656Z AUTO 27016G24KT 10SM CLR 08/ A2985 RMK AO2 SLP095 T0078 402000022 $

15 de abril de 2024

Hora Código Tiempo Temp. Visibilidad Cielo nuboso Viento METAR/SPECI
23:56
V
8 °C 10 mi - 260° 260° 15 kt METAR KCTB 160556Z AUTO 26015KT 10SM CLR 08/ A2985 RMK AO2 PK WND 26034/0502 SLP094 T0078 10172 20078 53019 $
22:56
V
9 °C 10 mi - 260° 260° 15 - 27 kt METAR KCTB 160456Z AUTO 26015G27KT 10SM CLR 09/ A2981 RMK AO2 PK WND 26033/0440 SLP081 T0094 $
21:56
V
9 °C 10 mi - 280° 280° 14 kt METAR KCTB 160356Z AUTO 28014KT 10SM CLR 09/M02 A2981 RMK AO2 SLP085 T00891022 $
20:56
V
10 °C 10 mi - 260° 260° 16 kt METAR KCTB 160256Z AUTO 26016KT 10SM CLR 10/M03 A2979 RMK AO2 PK WND 25027/0207 SLP078 T01001028 53010
19:56
V
12 °C 10 mi - 260° 260° 18 kt METAR KCTB 160156Z AUTO 26018KT 10SM CLR 12/M03 A2976 RMK AO2 PK WND 26029/0109 SLP069 T01171028
18:56
V
15 °C 10 mi - 260° 260° 20 - 31 kt METAR KCTB 160056Z AUTO 26020G31KT 10SM CLR 15/M03 A2975 RMK AO2 PK WND 25034/0009 SLP061 T01501028
17:56
V
16 °C 10 mi - 250° 250° 21 - 28 kt METAR KCTB 152356Z AUTO 25021G28KT 10SM CLR 16/M02 A2975 RMK AO2 PK WND 27030/2316 SLP063 T01561017 10200 20144 53001
16:56
V
17 °C 10 mi - 270° 270° 19 - 31 kt METAR KCTB 152256Z AUTO 27019G31KT 10SM CLR 17/M01 A2974 RMK AO2 PK WND 25034/2204 SLP065 T01671011
15:56
V
16 °C 10 mi - 250° 250° 23 - 30 kt METAR KCTB 152156Z AUTO 25023G30KT 10SM CLR 16/M01 A2974 RMK AO2 PK WND 25031/2131 SLP068 T01611011
14:56
V
17 °C 10 mi - 270° 270° 23 - 34 kt METAR KCTB 152056Z AUTO 27023G34KT 10SM CLR 17/M02 A2975 RMK AO2 PK WND 27034/2050 SLP066 T01721022 53005
13:56
V
18 °C 10 mi - 270° 270° 20 - 31 kt METAR KCTB 151956Z AUTO 27020G31KT 10SM CLR 18/M02 A2974 RMK AO2 PK WND 26034/1939 SLP062 T01781022
12:56
V
19 °C 10 mi - 280° 280° 13 - 26 kt METAR KCTB 151856Z AUTO 28013G26KT 10SM CLR 19/M02 A2973 RMK AO2 PK WND 26028/1836 SLP052 T01941017
11:56
V
18 °C 10 mi - 250° 250° 15 - 26 kt METAR KCTB 151756Z AUTO 25015G26KT 10SM CLR 18/M01 A2973 RMK AO2 PK WND 26026/1750 SLP053 T01831011 10189 20100 56005
10:56
V
18 °C 10 mi - 250° 250° 16 kt METAR KCTB 151656Z AUTO 25016KT 10SM CLR 18/M01 A2973 RMK AO2 PK WND 25030/1622 SLP055 T01781006
09:56
V
14 °C 10 mi - 260° 260° 19 kt METAR KCTB 151556Z AUTO 26019KT 10SM CLR 14/01 A2973 RMK AO2 SLP058 T01440011
08:56
V
13 °C 10 mi - 260° 260° 15 kt METAR KCTB 151456Z AUTO 26015KT 10SM CLR 13/02 A2974 RMK AO2 SLP062 T01280017 50006
07:56
V
11 °C 10 mi - 250° 250° 10 kt METAR KCTB 151356Z AUTO 25010KT 10SM CLR 11/02 A2975 RMK AO2 SLP061 T01110022
06:56
V
11 °C 10 mi - 260° 260° 15 kt METAR KCTB 151256Z AUTO 26015KT 10SM CLR 11/02 A2974 RMK AO2 SLP055 T01060022
05:56
V
9 °C 10 mi - 260° 260° 15 kt METAR KCTB 151156Z AUTO 26015KT 10SM CLR 09/03 A2972 RMK AO2 SLP050 T00940028 10094 20022 56008
04:56
V
4 °C 10 mi - 240° 240° 3 kt METAR KCTB 151056Z AUTO 24003KT 10SM CLR 04/M01 A2973 RMK AO2 SLP056 T00391011
03:56
V
4 °C 10 mi - 230° 230° 4 kt METAR KCTB 150956Z AUTO 23004KT 10SM CLR 04/M01 A2974 RMK AO2 SLP061 T00391011
02:56
V
4 °C 10 mi - 240° 240° 4 kt METAR KCTB 150856Z AUTO 24004KT 10SM CLR 04/M02 A2975 RMK AO2 SLP064 T00441022 56013
01:56
V
4 °C 10 mi - 290° 290° 10 kt METAR KCTB 150756Z AUTO 29010KT 10SM CLR 04/M02 A2977 RMK AO2 SLP072 T00391022
00:56
V
8 °C 10 mi - 120° 120° 4 kt METAR KCTB 150656Z AUTO 12004KT 10SM CLR 08/M04 A2977 RMK AO2 SLP069 T00781039 402170011

14 de abril de 2024

Hora Código Tiempo Temp. Visibilidad Cielo nuboso Viento METAR/SPECI
23:56
V
8 °C 10 mi - 150° 150° 7 kt METAR KCTB 150556Z AUTO 15007KT 10SM CLR 08/M04 A2979 RMK AO2 SLP077 T00781039 10183 20061 58001
Cambiar esta información